createdAt,value
2023-04-05T00:00:08.889Z,0.90
2023-04-05T00:02:37.261Z,0.90
2023-04-05T00:05:05.452Z,1.00
2023-04-05T00:07:34.407Z,1.07
2023-04-05T00:10:01.897Z,0.90
2023-04-05T00:12:29.407Z,0.90
2023-04-05T00:14:57.166Z,1.20
2023-04-05T00:17:24.870Z,0.80
2023-04-05T00:19:57.520Z,0.97
2023-04-05T00:22:25.915Z,1.13
2023-04-05T00:24:53.373Z,0.83
2023-04-05T00:27:21.143Z,0.83
2023-04-05T00:29:48.524Z,1.00
2023-04-05T00:32:16.247Z,1.10
2023-04-05T00:34:43.732Z,1.10
2023-04-05T00:37:11.954Z,1.03
2023-04-05T00:39:40.354Z,1.00
2023-04-05T00:42:09.180Z,0.90
2023-04-05T00:44:39.689Z,0.90
2023-04-05T00:47:07.818Z,0.90
2023-04-05T00:49:36.696Z,0.90
2023-04-05T00:52:04.390Z,0.97
2023-04-05T00:54:31.867Z,1.10
2023-04-05T00:57:02.448Z,0.90
2023-04-05T00:59:30.123Z,1.10
2023-04-05T01:02:02.655Z,1.10
2023-04-05T01:04:31.837Z,1.00
2023-04-05T01:07:02.376Z,0.90
2023-04-05T01:09:32.452Z,0.80
2023-04-05T01:12:02.459Z,1.00
2023-04-05T01:14:29.863Z,0.80
2023-04-05T01:17:02.321Z,0.90
2023-04-05T01:19:30.739Z,1.20
2023-04-05T01:22:38.132Z,1.00
2023-04-05T01:25:25.943Z,1.07
2023-04-05T01:27:59.066Z,1.10
2023-04-05T01:30:35.883Z,1.30
2023-04-05T01:33:18.287Z,1.03
2023-04-05T01:35:54.506Z,1.10
2023-04-05T01:38:25.369Z,1.03
2023-04-05T01:40:53.789Z,1.43
2023-04-05T01:43:21.137Z,1.40
2023-04-05T01:45:48.533Z,0.83
2023-04-05T01:48:16.297Z,6.83
2023-04-05T01:50:44.122Z,1.80
2023-04-05T01:53:11.811Z,1.30
2023-04-05T01:55:39.237Z,1.20
2023-04-05T01:58:06.719Z,1.00
2023-04-05T02:00:34.014Z,1.00
2023-04-05T02:03:01.625Z,1.37
2023-04-05T02:05:29.174Z,1.23
2023-04-05T02:07:56.572Z,1.03
2023-04-05T02:10:24.226Z,1.07
2023-04-05T02:12:51.746Z,1.10
2023-04-05T02:15:19.335Z,1.20
2023-04-05T02:17:46.693Z,1.30
2023-04-05T02:20:14.964Z,0.90
2023-04-05T02:22:45.557Z,1.10
2023-04-05T02:25:13.814Z,1.60
2023-04-05T02:27:41.708Z,1.23
2023-04-05T02:30:10.622Z,1.30
2023-04-05T02:32:38.145Z,1.10
2023-04-05T02:35:05.894Z,1.20
2023-04-05T02:37:33.428Z,1.47
2023-04-05T02:40:00.894Z,1.10
2023-04-05T02:42:28.307Z,1.20
2023-04-05T02:44:56.145Z,1.40
2023-04-05T02:47:23.521Z,1.30
2023-04-05T02:49:51.066Z,1.30
2023-04-05T02:52:18.547Z,1.17
2023-04-05T02:54:46.924Z,1.50
2023-04-05T02:57:14.623Z,1.20
2023-04-05T02:59:42.875Z,1.40
2023-04-05T03:02:11.097Z,1.27
2023-04-05T03:04:38.852Z,1.70
2023-04-05T03:07:06.196Z,1.57
2023-04-05T03:09:33.740Z,1.33
2023-04-05T03:12:03.749Z,1.03
2023-04-05T03:14:31.821Z,1.40
2023-04-05T03:16:59.378Z,1.20
2023-04-05T03:19:27.337Z,1.50
2023-04-05T03:21:54.726Z,1.30
2023-04-05T03:24:22.163Z,1.30
2023-04-05T03:26:49.766Z,1.30
2023-04-05T03:29:17.584Z,1.13
2023-04-05T03:31:46.918Z,1.20
2023-04-05T03:34:14.530Z,1.63
2023-04-05T03:36:42.744Z,1.17
2023-04-05T03:39:10.860Z,1.20
2023-04-05T03:41:38.690Z,1.40
2023-04-05T03:44:06.691Z,1.10
2023-04-05T03:46:34.469Z,1.30
2023-04-05T03:49:04.791Z,1.20
2023-04-05T03:51:32.844Z,1.10
2023-04-05T03:54:00.562Z,1.30
2023-04-05T03:56:28.099Z,1.37
2023-04-05T03:58:55.491Z,1.17
2023-04-05T04:01:22.961Z,1.10
2023-04-05T04:03:50.516Z,1.50
2023-04-05T04:06:19.641Z,1.40
2023-04-05T04:08:47.239Z,1.90
2023-04-05T04:11:14.681Z,1.23
2023-04-05T04:13:42.159Z,0.90
2023-04-05T04:16:09.618Z,1.20
2023-04-05T04:18:37.016Z,1.47
2023-04-05T04:21:07.483Z,1.83
2023-04-05T04:23:38.706Z,1.20
2023-04-05T04:26:06.447Z,1.33
2023-04-05T04:28:38.918Z,1.50
2023-04-05T04:31:09.352Z,1.40
2023-04-05T04:33:36.700Z,1.27
2023-04-05T04:36:07.220Z,1.20
2023-04-05T04:38:35.092Z,1.10
2023-04-05T04:41:07.088Z,1.37
2023-04-05T04:43:43.838Z,1.70
2023-04-05T04:46:15.303Z,1.53
2023-04-05T04:48:43.105Z,1.40
2023-04-05T04:51:13.766Z,1.13
2023-04-05T04:53:41.325Z,1.23
2023-04-05T04:56:09.099Z,1.50
2023-04-05T04:58:36.560Z,1.20
2023-04-05T05:01:09.205Z,1.30
2023-04-05T05:03:38.885Z,1.33
2023-04-05T05:06:06.672Z,1.50
2023-04-05T05:08:34.039Z,1.80
2023-04-05T05:11:02.009Z,1.33
2023-04-05T05:13:29.416Z,1.97
2023-04-05T05:15:58.276Z,1.93
2023-04-05T05:18:26.254Z,2.13
2023-04-05T05:20:53.659Z,1.60
2023-04-05T05:23:21.436Z,1.90
2023-04-05T05:25:49.099Z,2.47
2023-04-05T05:28:16.863Z,3.37
2023-04-05T05:30:45.261Z,2.90
2023-04-05T05:33:12.840Z,3.03
2023-04-05T05:35:41.147Z,2.50
2023-04-05T05:38:10.788Z,2.03
2023-04-05T05:40:40.278Z,1.97
2023-04-05T05:43:07.986Z,1.57
2023-04-05T05:45:35.845Z,1.80
2023-04-05T05:48:03.307Z,1.97
2023-04-05T05:50:33.883Z,1.70
2023-04-05T05:53:01.919Z,1.70
2023-04-05T05:55:29.301Z,1.90
2023-04-05T05:57:56.954Z,2.50
2023-04-05T06:00:24.650Z,2.07
2023-04-05T06:02:52.997Z,1.37
2023-04-05T06:05:20.614Z,1.70
2023-04-05T06:07:48.030Z,1.97
2023-04-05T06:10:15.757Z,1.80
2023-04-05T06:12:43.324Z,1.83
2023-04-05T06:15:11.127Z,1.60
2023-04-05T06:17:42.590Z,1.53
2023-04-05T06:20:12.045Z,1.73
2023-04-05T06:22:41.150Z,1.70
2023-04-05T06:25:13.210Z,1.77
2023-04-05T06:27:40.608Z,1.60
2023-04-05T06:30:08.364Z,1.70
2023-04-05T06:32:35.802Z,1.67
2023-04-05T06:35:06.567Z,2.00
2023-04-05T06:37:33.927Z,1.90
2023-04-05T06:40:01.408Z,1.83
2023-04-05T06:42:28.765Z,1.60
2023-04-05T06:44:56.238Z,1.90
2023-04-05T06:47:23.694Z,2.00
2023-04-05T06:49:51.232Z,1.90
2023-04-05T06:52:18.776Z,1.67
2023-04-05T06:54:46.305Z,1.57
2023-04-05T06:57:13.678Z,2.03
2023-04-05T06:59:41.089Z,2.17
2023-04-05T07:02:08.624Z,1.80
2023-04-05T07:04:37.181Z,2.50
2023-04-05T07:07:04.902Z,2.07
2023-04-05T07:09:37.630Z,2.00
2023-04-05T07:12:07.809Z,1.87
2023-04-05T07:14:36.550Z,2.20
2023-04-05T07:17:06.484Z,2.13
2023-04-05T07:19:34.540Z,1.93
2023-04-05T07:22:02.323Z,1.93
2023-04-05T07:24:29.761Z,1.87
2023-04-05T07:26:57.387Z,2.57
2023-04-05T07:29:24.688Z,2.20
2023-04-05T07:31:52.173Z,2.30
2023-04-05T07:34:19.606Z,2.37
2023-04-05T07:36:47.188Z,2.87
2023-04-05T07:39:14.709Z,2.37
2023-04-05T07:41:43.108Z,2.60
2023-04-05T07:44:11.434Z,2.43
2023-04-05T07:46:46.901Z,2.70
2023-04-05T07:49:16.148Z,2.70
2023-04-05T07:51:43.980Z,2.80
2023-04-05T07:54:11.733Z,3.30
2023-04-05T07:56:39.147Z,3.00
2023-04-05T07:59:06.595Z,2.60
2023-04-05T08:01:34.132Z,2.80
2023-04-05T08:04:01.684Z,2.73
2023-04-05T08:06:29.163Z,2.60
2023-04-05T08:08:56.635Z,2.60
2023-04-05T08:11:23.959Z,2.67
2023-04-05T08:13:51.460Z,3.10
2023-04-05T08:16:18.986Z,3.00
2023-04-05T08:18:46.442Z,2.67
2023-04-05T08:21:13.835Z,2.73
2023-04-05T08:23:41.899Z,3.23
2023-04-05T08:26:09.641Z,3.40
2023-04-05T08:28:37.088Z,3.20
2023-04-05T08:31:04.551Z,3.13
2023-04-05T08:33:32.356Z,3.17
2023-04-05T08:36:04.567Z,2.90
2023-04-05T08:38:32.028Z,3.30
2023-04-05T08:41:07.567Z,3.20
2023-04-05T08:43:39.431Z,3.30
2023-04-05T08:46:10.134Z,3.60
2023-04-05T08:48:39.360Z,3.20
2023-04-05T08:51:09.464Z,3.87
2023-04-05T08:53:36.941Z,3.60
2023-04-05T08:56:04.852Z,3.37
2023-04-05T08:58:34.303Z,3.70
2023-04-05T09:01:02.086Z,4.10
2023-04-05T09:03:37.889Z,3.63
2023-04-05T09:06:07.824Z,3.97
2023-04-05T09:08:35.311Z,4.23
2023-04-05T09:11:02.882Z,3.70
2023-04-05T09:13:30.904Z,3.93
2023-04-05T09:16:02.488Z,3.87
2023-04-05T09:18:29.964Z,4.27
2023-04-05T09:20:58.211Z,4.13
2023-04-05T09:23:26.000Z,3.57
2023-04-05T09:25:53.392Z,3.63
2023-04-05T09:28:20.872Z,4.47
2023-04-05T09:30:48.496Z,3.90
2023-04-05T09:33:20.253Z,3.93
2023-04-05T09:35:51.610Z,3.80
2023-04-05T09:38:19.095Z,3.90
2023-04-05T09:40:52.392Z,3.50
2023-04-05T09:43:39.204Z,3.23
2023-04-05T09:46:06.708Z,4.20
2023-04-05T09:48:50.618Z,3.83
2023-04-05T09:51:18.719Z,3.93
2023-04-05T09:54:06.500Z,4.03
2023-04-05T09:56:37.399Z,4.33
2023-04-05T09:59:13.851Z,4.07
2023-04-05T10:01:44.617Z,3.50
2023-04-05T10:04:12.328Z,4.17
2023-04-05T10:06:41.435Z,3.67
2023-04-05T10:09:09.744Z,3.43
2023-04-05T10:11:38.009Z,3.40
2023-04-05T10:14:09.088Z,3.40
2023-04-05T10:16:45.109Z,4.30
2023-04-05T10:19:16.977Z,3.40
2023-04-05T10:21:44.979Z,3.53
2023-04-05T10:24:18.756Z,3.83
2023-04-05T10:27:09.445Z,4.03
2023-04-05T10:29:46.714Z,3.70
2023-04-05T10:32:28.506Z,3.67
2023-04-05T10:35:01.965Z,3.80
2023-04-05T10:37:29.436Z,3.60
2023-04-05T10:39:59.411Z,3.97
2023-04-05T10:42:35.846Z,4.00
2023-04-05T10:45:06.885Z,3.40
2023-04-05T10:47:37.936Z,3.83
2023-04-05T10:50:09.697Z,3.53
2023-04-05T10:52:38.132Z,3.10
2023-04-05T10:55:06.117Z,3.63
2023-04-05T10:57:34.051Z,3.30
2023-04-05T11:00:01.948Z,3.23
2023-04-05T11:02:32.277Z,3.63
2023-04-05T11:05:05.131Z,3.60
2023-04-05T11:07:51.450Z,3.57
2023-04-05T11:10:20.241Z,3.47
2023-04-05T11:12:47.773Z,3.30
2023-04-05T11:15:44.792Z,3.17
2023-04-05T11:18:17.697Z,3.80
2023-04-05T11:20:51.535Z,3.20
2023-04-05T11:23:20.169Z,3.07
2023-04-05T11:26:00.695Z,3.60
2023-04-05T11:28:32.214Z,3.57
2023-04-05T11:31:12.601Z,3.67
2023-04-05T11:33:56.657Z,3.20
2023-04-05T11:36:32.123Z,3.20
2023-04-05T11:39:17.914Z,3.57
2023-04-05T11:42:05.872Z,3.23
2023-04-05T11:44:43.465Z,3.50
2023-04-05T11:47:11.747Z,3.37
2023-04-05T11:49:39.963Z,3.40
2023-04-05T11:52:16.966Z,4.33
2023-04-05T11:54:49.387Z,3.40
2023-04-05T11:57:23.869Z,3.40
2023-04-05T11:59:52.741Z,3.00
2023-04-05T12:02:20.753Z,3.10
2023-04-05T12:04:58.037Z,3.30
2023-04-05T12:07:29.659Z,3.73
2023-04-05T12:10:18.124Z,3.40
2023-04-05T12:12:47.887Z,2.90
2023-04-05T12:15:18.787Z,3.27
2023-04-05T12:17:47.502Z,2.57
2023-04-05T12:20:16.930Z,2.70
2023-04-05T12:22:45.578Z,2.93
2023-04-05T12:25:13.878Z,2.47
2023-04-05T12:27:41.654Z,2.20
2023-04-05T12:30:11.247Z,2.40
2023-04-05T12:32:57.951Z,2.77
2023-04-05T12:35:33.124Z,2.60
2023-04-05T12:38:02.263Z,2.03
2023-04-05T12:40:31.124Z,2.80
2023-04-05T12:43:08.605Z,2.47
2023-04-05T12:45:40.864Z,2.07
2023-04-05T12:48:10.044Z,2.93
2023-04-05T12:50:37.674Z,2.70
2023-04-05T12:53:08.208Z,2.47
2023-04-05T12:55:39.973Z,2.30
2023-04-05T12:58:07.728Z,2.40
2023-04-05T13:00:35.123Z,2.40
2023-04-05T13:03:02.586Z,2.60
2023-04-05T13:05:31.432Z,2.50
2023-04-05T13:07:59.528Z,2.10
2023-04-05T13:10:27.681Z,2.03
2023-04-05T13:12:55.266Z,2.10
2023-04-05T13:15:23.012Z,2.17
2023-04-05T13:17:52.361Z,2.00
2023-04-05T13:20:19.892Z,2.07
2023-04-05T13:22:47.329Z,2.33
2023-04-05T13:25:15.617Z,2.10
2023-04-05T13:27:45.083Z,2.00
2023-04-05T13:30:12.676Z,1.90
2023-04-05T13:32:40.195Z,1.80
2023-04-05T13:35:08.053Z,1.93
2023-04-05T13:37:35.619Z,2.23
2023-04-05T13:40:02.977Z,2.70
2023-04-05T13:42:31.274Z,1.90
2023-04-05T13:44:58.644Z,1.87
2023-04-05T13:47:26.070Z,1.63
2023-04-05T13:49:53.555Z,1.67
2023-04-05T13:52:21.086Z,2.03
2023-04-05T13:54:48.574Z,1.90
2023-04-05T13:57:29.806Z,2.40
2023-04-05T13:59:57.326Z,2.40
2023-04-05T14:02:27.344Z,2.50
2023-04-05T14:04:55.398Z,2.23
2023-04-05T14:07:23.620Z,2.53
2023-04-05T14:09:51.010Z,2.70
2023-04-05T14:12:18.944Z,3.13
2023-04-05T14:14:46.816Z,2.63
2023-04-05T14:17:14.176Z,2.37
2023-04-05T14:19:41.604Z,2.63
2023-04-05T14:22:09.043Z,1.80
2023-04-05T14:24:36.533Z,1.70
2023-04-05T14:27:04.010Z,1.97
2023-04-05T14:29:31.735Z,2.00
2023-04-05T14:31:59.154Z,1.90
2023-04-05T14:34:26.562Z,1.70
2023-04-05T14:36:56.708Z,2.00
2023-04-05T14:39:24.085Z,1.70
2023-04-05T14:41:52.984Z,1.90
2023-04-05T14:44:20.696Z,1.40
2023-04-05T14:46:50.747Z,1.40
2023-04-05T14:49:20.426Z,1.30
2023-04-05T14:51:48.505Z,1.40
2023-04-05T14:54:16.194Z,1.40
2023-04-05T14:56:43.809Z,1.10
2023-04-05T14:59:11.226Z,1.10
2023-04-05T15:01:40.005Z,1.20
2023-04-05T15:04:09.310Z,0.90
2023-04-05T15:06:37.808Z,0.83
2023-04-05T15:09:05.285Z,0.80
2023-04-05T15:11:35.776Z,0.87
2023-04-05T15:14:03.249Z,0.90
2023-04-05T15:16:31.011Z,0.90
2023-04-05T15:19:01.538Z,0.80
2023-04-05T15:21:29.055Z,0.70
2023-04-05T15:23:56.714Z,0.80
2023-04-05T15:26:24.183Z,1.20
2023-04-05T15:28:51.688Z,1.40
2023-04-05T15:31:19.205Z,1.30
2023-04-05T15:33:46.686Z,1.50
2023-04-05T15:36:14.373Z,1.30
2023-04-05T15:38:42.162Z,1.30
2023-04-05T15:41:09.664Z,1.43
2023-04-05T15:43:39.488Z,1.40
2023-04-05T15:46:07.098Z,1.27
2023-04-05T15:48:34.595Z,1.50
2023-04-05T15:51:02.009Z,1.70
2023-04-05T15:53:29.486Z,1.33
2023-04-05T15:55:58.521Z,1.47
2023-04-05T15:58:26.051Z,1.50
2023-04-05T16:00:53.487Z,1.40
2023-04-05T16:03:21.165Z,1.60
2023-04-05T16:05:48.653Z,1.70
2023-04-05T16:08:16.008Z,1.77
2023-04-05T16:10:45.038Z,2.33
2023-04-05T16:13:12.769Z,1.70
2023-04-05T16:15:40.484Z,1.60
2023-04-05T16:18:09.526Z,1.70
2023-04-05T16:20:37.515Z,2.10
2023-04-05T16:23:04.973Z,2.23
2023-04-05T16:25:32.451Z,1.90
2023-04-05T16:27:59.899Z,2.40
2023-04-05T16:30:27.407Z,2.37
2023-04-05T16:32:55.208Z,2.70
2023-04-05T16:35:22.608Z,2.57
2023-04-05T16:37:50.054Z,2.47
2023-04-05T16:40:18.452Z,2.80
2023-04-05T16:42:46.156Z,2.00
2023-04-05T16:45:13.725Z,2.23
2023-04-05T16:47:41.463Z,2.40
2023-04-05T16:50:09.412Z,2.53
2023-04-05T16:52:37.011Z,2.60
2023-04-05T16:55:04.612Z,2.70
2023-04-05T16:57:33.017Z,2.80
2023-04-05T17:00:00.530Z,3.40
2023-04-05T17:02:28.053Z,3.50
2023-04-05T17:04:55.588Z,3.07
2023-04-05T17:07:23.086Z,3.20
2023-04-05T17:09:50.461Z,3.60
2023-04-05T17:12:17.927Z,2.87
2023-04-05T17:14:45.414Z,2.80
2023-04-05T17:17:12.725Z,3.70
2023-04-05T17:19:40.282Z,3.37
2023-04-05T17:22:07.683Z,3.40
2023-04-05T17:24:36.364Z,3.80
2023-04-05T17:27:04.548Z,3.20
2023-04-05T17:29:31.989Z,3.90
2023-04-05T17:31:59.626Z,3.50
2023-04-05T17:34:27.203Z,3.73
2023-04-05T17:36:57.720Z,3.70
2023-04-05T17:39:25.901Z,3.63
2023-04-05T17:41:56.240Z,4.10
2023-04-05T17:44:23.653Z,3.87
2023-04-05T17:47:05.510Z,3.30
2023-04-05T17:49:37.867Z,4.17
2023-04-05T17:52:08.863Z,4.50
2023-04-05T17:54:37.288Z,4.03
2023-04-05T17:57:05.486Z,4.43
2023-04-05T17:59:33.233Z,3.10
2023-04-05T18:02:01.064Z,3.20
2023-04-05T18:04:28.673Z,3.97
2023-04-05T18:06:56.696Z,3.40
2023-04-05T18:09:26.394Z,3.73
2023-04-05T18:11:53.817Z,3.40
2023-04-05T18:14:21.251Z,3.63
2023-04-05T18:16:48.849Z,4.13
2023-04-05T18:19:17.683Z,3.97
2023-04-05T18:21:45.040Z,3.83
2023-04-05T18:24:13.057Z,3.67
2023-04-05T18:26:40.550Z,3.60
2023-04-05T18:29:08.080Z,4.07
2023-04-05T18:31:35.728Z,4.60
2023-04-05T18:34:06.393Z,4.43
2023-04-05T18:36:33.981Z,5.10
2023-04-05T18:39:05.623Z,4.63
2023-04-05T18:41:33.325Z,4.27
2023-04-05T18:44:00.806Z,4.73
2023-04-05T18:46:28.510Z,4.67
2023-04-05T18:48:56.536Z,4.20
2023-04-05T18:51:27.404Z,5.10
2023-04-05T18:53:54.949Z,4.63
2023-04-05T18:56:22.480Z,4.73
2023-04-05T18:58:52.975Z,4.90
2023-04-05T19:01:20.857Z,4.43
2023-04-05T19:03:49.299Z,4.97
2023-04-05T19:06:17.046Z,4.90
2023-04-05T19:08:44.608Z,5.00
2023-04-05T19:11:13.880Z,4.33
2023-04-05T19:13:42.266Z,4.90
2023-04-05T19:16:09.825Z,4.33
2023-04-05T19:18:37.340Z,4.60
2023-04-05T19:21:04.845Z,4.17
2023-04-05T19:23:32.768Z,4.23
2023-04-05T19:26:00.215Z,5.20
2023-04-05T19:28:27.938Z,4.93
2023-04-05T19:30:55.817Z,4.90
2023-04-05T19:33:23.525Z,4.60
2023-04-05T19:35:51.420Z,4.43
2023-04-05T19:38:22.146Z,4.57
2023-04-05T19:40:50.004Z,4.00
2023-04-05T19:43:18.222Z,4.93
2023-04-05T19:45:45.643Z,4.43
2023-04-05T19:48:31.730Z,4.53
2023-04-05T19:51:02.280Z,4.10
2023-04-05T19:53:36.604Z,4.20
2023-04-05T19:56:08.881Z,4.17
2023-04-05T19:58:36.532Z,3.67
2023-04-05T20:01:04.126Z,3.40
2023-04-05T20:03:36.049Z,3.50
2023-04-05T20:06:04.352Z,3.60
2023-04-05T20:08:33.536Z,3.70
2023-04-05T20:11:01.041Z,3.30
2023-04-05T20:13:31.757Z,3.57
2023-04-05T20:15:59.163Z,3.50
2023-04-05T20:18:27.727Z,2.70
2023-04-05T20:20:55.569Z,3.17
2023-04-05T20:23:23.572Z,3.50
2023-04-05T20:25:51.920Z,3.30
2023-04-05T20:28:25.176Z,3.20
2023-04-05T20:30:53.657Z,3.33
2023-04-05T20:33:39.764Z,3.97
2023-04-05T20:36:11.390Z,3.73
2023-04-05T20:38:42.569Z,3.83
2023-04-05T20:41:11.647Z,4.57
2023-04-05T20:43:39.751Z,3.63
2023-04-05T20:46:08.327Z,3.97
2023-04-05T20:48:36.449Z,4.20
2023-04-05T20:51:05.026Z,3.97
2023-04-05T20:53:33.408Z,4.23
2023-04-05T20:56:00.950Z,4.20
2023-04-05T20:58:28.688Z,3.40
2023-04-05T21:00:57.401Z,3.43
2023-04-05T21:03:24.876Z,3.27
2023-04-05T21:05:52.622Z,2.87
2023-04-05T21:08:20.126Z,2.87
2023-04-05T21:10:47.646Z,3.00
2023-04-05T21:13:14.961Z,3.03
2023-04-05T21:15:42.758Z,3.30
2023-04-05T21:18:10.698Z,3.20
2023-04-05T21:20:38.187Z,3.40
2023-04-05T21:23:05.891Z,3.50
2023-04-05T21:25:33.479Z,3.80
2023-04-05T21:28:01.300Z,3.57
2023-04-05T21:30:29.368Z,3.50
2023-04-05T21:32:57.665Z,3.40
2023-04-05T21:35:25.430Z,3.20
2023-04-05T21:37:52.922Z,4.00
2023-04-05T21:40:20.441Z,3.80
2023-04-05T21:42:47.888Z,3.53
2023-04-05T21:45:15.576Z,4.17
2023-04-05T21:47:43.046Z,3.43
2023-04-05T21:50:10.928Z,3.10
2023-04-05T21:52:38.485Z,3.70
2023-04-05T21:55:06.132Z,3.37
2023-04-05T21:57:34.002Z,3.40
2023-04-05T22:00:05.594Z,3.33
2023-04-05T22:02:33.207Z,3.70
2023-04-05T22:05:00.725Z,3.30
2023-04-05T22:07:28.540Z,3.57
2023-04-05T22:09:56.168Z,3.90
2023-04-05T22:12:23.736Z,3.20
2023-04-05T22:14:51.251Z,3.90
2023-04-05T22:17:18.780Z,3.63
2023-04-05T22:19:47.727Z,3.60
2023-04-05T22:22:15.775Z,3.60
2023-04-05T22:24:43.875Z,3.53
2023-04-05T22:27:12.157Z,3.20
2023-04-05T22:29:39.983Z,3.63
2023-04-05T22:32:07.684Z,3.60
2023-04-05T22:34:35.675Z,4.23
2023-04-05T22:37:03.177Z,3.77
2023-04-05T22:39:30.522Z,4.07
2023-04-05T22:41:58.026Z,3.77
2023-04-05T22:44:25.495Z,3.93
2023-04-05T22:46:53.319Z,3.47
2023-04-05T22:49:20.878Z,3.33
2023-04-05T22:51:48.436Z,3.30
2023-04-05T22:54:15.899Z,3.90
2023-04-05T22:56:43.319Z,3.60
2023-04-05T22:59:11.245Z,3.53
2023-04-05T23:01:38.951Z,3.20
2023-04-05T23:04:06.873Z,3.67
2023-04-05T23:06:34.679Z,3.70
2023-04-05T23:09:04.482Z,3.53
2023-04-05T23:11:32.129Z,3.43
2023-04-05T23:13:59.484Z,4.10
2023-04-05T23:16:26.944Z,3.80
2023-04-05T23:18:54.520Z,3.47
2023-04-05T23:21:22.079Z,3.67
2023-04-05T23:23:49.564Z,4.57
2023-04-05T23:26:17.064Z,3.53
2023-04-05T23:28:44.401Z,3.70
2023-04-05T23:31:11.915Z,3.50
2023-04-05T23:33:39.396Z,3.70
2023-04-05T23:36:07.617Z,3.50
2023-04-05T23:38:35.042Z,3.60
2023-04-05T23:41:02.559Z,3.70
2023-04-05T23:43:30.214Z,3.53
2023-04-05T23:45:57.612Z,3.47
2023-04-05T23:48:24.990Z,3.83
2023-04-05T23:50:52.446Z,3.67
2023-04-05T23:53:19.909Z,3.53
2023-04-05T23:55:47.547Z,3.73
2023-04-05T23:58:15.232Z,3.40
